sensor_id;sensor_type;location;lat;lon;timestamp;P1;durP1;ratioP1;P2;durP2;ratioP2
21192;SDS011;10754;51.106;7.164;2022-12-16T00:01:22;26.63;;;21.30;;
21192;SDS011;10754;51.106;7.164;2022-12-16T00:03:51;26.57;;;20.60;;
21192;SDS011;10754;51.106;7.164;2022-12-16T00:06:21;25.67;;;20.43;;
21192;SDS011;10754;51.106;7.164;2022-12-16T00:08:48;25.80;;;20.43;;
21192;SDS011;10754;51.106;7.164;2022-12-16T00:11:13;25.10;;;21.17;;
21192;SDS011;10754;51.106;7.164;2022-12-16T00:13:44;24.53;;;19.80;;
21192;SDS011;10754;51.106;7.164;2022-12-16T00:16:11;24.57;;;19.70;;
21192;SDS011;10754;51.106;7.164;2022-12-16T00:18:38;28.47;;;20.67;;
21192;SDS011;10754;51.106;7.164;2022-12-16T00:21:04;24.90;;;20.53;;
21192;SDS011;10754;51.106;7.164;2022-12-16T00:23:33;25.07;;;20.00;;
21192;SDS011;10754;51.106;7.164;2022-12-16T00:26:34;25.97;;;21.17;;
21192;SDS011;10754;51.106;7.164;2022-12-16T00:35:42;25.10;;;20.60;;
21192;SDS011;10754;51.106;7.164;2022-12-16T00:38:38;24.33;;;20.60;;
21192;SDS011;10754;51.106;7.164;2022-12-16T00:41:23;26.53;;;20.23;;
21192;SDS011;10754;51.106;7.164;2022-12-16T00:44:14;25.90;;;20.03;;
21192;SDS011;10754;51.106;7.164;2022-12-16T00:57:06;24.37;;;20.03;;
21192;SDS011;10754;51.106;7.164;2022-12-16T01:07:37;25.67;;;18.53;;
21192;SDS011;10754;51.106;7.164;2022-12-16T01:33:53;22.80;;;17.53;;
21192;SDS011;10754;51.106;7.164;2022-12-16T01:36:39;25.53;;;18.07;;
21192;SDS011;10754;51.106;7.164;2022-12-16T01:43:44;24.23;;;18.37;;
21192;SDS011;10754;51.106;7.164;2022-12-16T02:06:33;21.73;;;16.67;;
21192;SDS011;10754;51.106;7.164;2022-12-16T02:45:31;22.80;;;17.67;;
21192;SDS011;10754;51.106;7.164;2022-12-16T02:48:38;21.33;;;17.77;;
21192;SDS011;10754;51.106;7.164;2022-12-16T03:05:45;20.80;;;16.87;;
21192;SDS011;10754;51.106;7.164;2022-12-16T03:08:36;20.70;;;16.20;;
21192;SDS011;10754;51.106;7.164;2022-12-16T03:11:49;19.80;;;16.13;;
21192;SDS011;10754;51.106;7.164;2022-12-16T03:14:58;19.20;;;15.57;;
21192;SDS011;10754;51.106;7.164;2022-12-16T03:18:07;19.43;;;16.33;;
21192;SDS011;10754;51.106;7.164;2022-12-16T03:21:08;20.10;;;14.83;;
21192;SDS011;10754;51.106;7.164;2022-12-16T03:37:43;20.37;;;14.87;;
21192;SDS011;10754;51.106;7.164;2022-12-16T04:09:01;17.67;;;13.97;;
21192;SDS011;10754;51.106;7.164;2022-12-16T04:11:57;16.20;;;13.27;;
21192;SDS011;10754;51.106;7.164;2022-12-16T04:14:58;16.70;;;13.33;;
21192;SDS011;10754;51.106;7.164;2022-12-16T04:18:23;17.17;;;14.13;;
21192;SDS011;10754;51.106;7.164;2022-12-16T04:30:51;27.90;;;23.57;;
21192;SDS011;10754;51.106;7.164;2022-12-16T04:37:27;21.07;;;15.93;;
21192;SDS011;10754;51.106;7.164;2022-12-16T04:44:29;18.13;;;15.13;;
21192;SDS011;10754;51.106;7.164;2022-12-16T04:51:30;16.63;;;13.90;;
21192;SDS011;10754;51.106;7.164;2022-12-16T04:57:39;15.70;;;11.80;;
21192;SDS011;10754;51.106;7.164;2022-12-16T05:01:02;16.93;;;12.77;;
21192;SDS011;10754;51.106;7.164;2022-12-16T05:32:14;12.97;;;11.07;;
21192;SDS011;10754;51.106;7.164;2022-12-16T05:35:00;14.20;;;11.83;;
21192;SDS011;10754;51.106;7.164;2022-12-16T05:41:20;14.43;;;11.53;;
21192;SDS011;10754;51.106;7.164;2022-12-16T05:44:20;13.13;;;10.80;;
21192;SDS011;10754;51.106;7.164;2022-12-16T05:47:30;14.53;;;11.57;;
21192;SDS011;10754;51.106;7.164;2022-12-16T05:54:04;15.70;;;10.77;;
21192;SDS011;10754;51.106;7.164;2022-12-16T06:14:33;16.37;;;13.43;;
21192;SDS011;10754;51.106;7.164;2022-12-16T06:28:28;16.03;;;11.50;;
21192;SDS011;10754;51.106;7.164;2022-12-16T06:31:20;18.07;;;10.83;;
21192;SDS011;10754;51.106;7.164;2022-12-16T06:34:43;13.67;;;10.70;;
21192;SDS011;10754;51.106;7.164;2022-12-16T06:55:37;15.80;;;13.83;;
21192;SDS011;10754;51.106;7.164;2022-12-16T07:01:29;20.73;;;15.90;;
21192;SDS011;10754;51.106;7.164;2022-12-16T07:08:04;17.27;;;15.43;;
21192;SDS011;10754;51.106;7.164;2022-12-16T07:22:09;17.10;;;14.07;;
21192;SDS011;10754;51.106;7.164;2022-12-16T07:25:14;15.97;;;12.77;;
21192;SDS011;10754;51.106;7.164;2022-12-16T07:28:23;15.90;;;13.13;;
21192;SDS011;10754;51.106;7.164;2022-12-16T07:35:01;14.47;;;11.13;;
21192;SDS011;10754;51.106;7.164;2022-12-16T07:38:13;14.13;;;11.63;;
21192;SDS011;10754;51.106;7.164;2022-12-16T07:48:31;15.17;;;11.97;;
21192;SDS011;10754;51.106;7.164;2022-12-16T07:51:45;17.93;;;13.07;;
21192;SDS011;10754;51.106;7.164;2022-12-16T08:01:33;17.33;;;12.33;;
21192;SDS011;10754;51.106;7.164;2022-12-16T08:14:19;14.27;;;11.73;;
21192;SDS011;10754;51.106;7.164;2022-12-16T08:23:46;13.37;;;10.97;;
21192;SDS011;10754;51.106;7.164;2022-12-16T08:30:26;13.80;;;10.47;;
21192;SDS011;10754;51.106;7.164;2022-12-16T08:33:13;13.83;;;11.53;;
21192;SDS011;10754;51.106;7.164;2022-12-16T08:46:51;13.73;;;11.50;;
21192;SDS011;10754;51.106;7.164;2022-12-16T08:50:05;15.07;;;11.40;;
21192;SDS011;10754;51.106;7.164;2022-12-16T08:53:06;15.13;;;11.50;;
21192;SDS011;10754;51.106;7.164;2022-12-16T08:56:09;15.67;;;12.50;;
21192;SDS011;10754;51.106;7.164;2022-12-16T09:05:55;16.63;;;13.80;;
21192;SDS011;10754;51.106;7.164;2022-12-16T09:15:47;19.53;;;13.50;;
21192;SDS011;10754;51.106;7.164;2022-12-16T09:22:00;17.50;;;13.60;;
21192;SDS011;10754;51.106;7.164;2022-12-16T09:28:23;18.47;;;15.03;;
21192;SDS011;10754;51.106;7.164;2022-12-16T09:37:45;22.73;;;15.20;;
21192;SDS011;10754;51.106;7.164;2022-12-16T09:44:41;21.97;;;16.53;;
21192;SDS011;10754;51.106;7.164;2022-12-16T09:51:42;18.80;;;14.17;;
21192;SDS011;10754;51.106;7.164;2022-12-16T09:54:53;19.43;;;14.40;;
21192;SDS011;10754;51.106;7.164;2022-12-16T09:57:58;18.77;;;13.87;;
21192;SDS011;10754;51.106;7.164;2022-12-16T10:04:18;18.23;;;14.37;;
21192;SDS011;10754;51.106;7.164;2022-12-16T10:14:06;24.37;;;16.80;;
21192;SDS011;10754;51.106;7.164;2022-12-16T10:17:27;18.53;;;15.67;;
21192;SDS011;10754;51.106;7.164;2022-12-16T10:20:39;20.07;;;16.87;;
21192;SDS011;10754;51.106;7.164;2022-12-16T10:23:33;20.40;;;16.23;;
21192;SDS011;10754;51.106;7.164;2022-12-16T10:30:16;20.27;;;16.80;;
21192;SDS011;10754;51.106;7.164;2022-12-16T10:33:08;20.70;;;16.73;;
21192;SDS011;10754;51.106;7.164;2022-12-16T10:36:09;21.13;;;16.60;;
21192;SDS011;10754;51.106;7.164;2022-12-16T10:39:18;19.33;;;16.40;;
21192;SDS011;10754;51.106;7.164;2022-12-16T10:42:27;20.17;;;16.93;;
21192;SDS011;10754;51.106;7.164;2022-12-16T10:45:44;19.83;;;16.67;;
21192;SDS011;10754;51.106;7.164;2022-12-16T10:48:35;23.90;;;18.23;;
21192;SDS011;10754;51.106;7.164;2022-12-16T11:05:02;19.07;;;17.17;;
21192;SDS011;10754;51.106;7.164;2022-12-16T11:08:49;19.90;;;17.33;;
21192;SDS011;10754;51.106;7.164;2022-12-16T11:18:35;21.53;;;18.80;;
21192;SDS011;10754;51.106;7.164;2022-12-16T11:21:39;21.63;;;17.87;;
21192;SDS011;10754;51.106;7.164;2022-12-16T11:24:41;20.33;;;17.87;;
21192;SDS011;10754;51.106;7.164;2022-12-16T11:27:28;21.27;;;19.07;;
21192;SDS011;10754;51.106;7.164;2022-12-16T11:33:48;20.80;;;18.20;;
21192;SDS011;10754;51.106;7.164;2022-12-16T11:36:36;20.33;;;18.03;;
21192;SDS011;10754;51.106;7.164;2022-12-16T11:39:31;20.33;;;17.67;;
21192;SDS011;10754;51.106;7.164;2022-12-16T11:45:34;20.23;;;18.03;;
21192;SDS011;10754;51.106;7.164;2022-12-16T11:51:27;21.53;;;18.23;;
21192;SDS011;10754;51.106;7.164;2022-12-16T11:54:19;20.90;;;18.70;;
21192;SDS011;10754;51.106;7.164;2022-12-16T11:57:37;20.40;;;18.37;;
21192;SDS011;10754;51.106;7.164;2022-12-16T12:00:24;21.03;;;18.70;;
21192;SDS011;10754;51.106;7.164;2022-12-16T12:03:18;20.97;;;18.70;;
21192;SDS011;10754;51.106;7.164;2022-12-16T12:09:24;21.07;;;18.60;;
21192;SDS011;10754;51.106;7.164;2022-12-16T12:12:22;21.23;;;19.03;;
21192;SDS011;10754;51.106;7.164;2022-12-16T12:18:15;19.83;;;17.73;;
21192;SDS011;10754;51.106;7.164;2022-12-16T12:21:26;20.23;;;18.07;;
21192;SDS011;10754;51.106;7.164;2022-12-16T12:27:16;21.57;;;19.23;;
21192;SDS011;10754;51.106;7.164;2022-12-16T12:30:13;20.30;;;18.10;;
21192;SDS011;10754;51.106;7.164;2022-12-16T12:33:14;21.07;;;18.87;;
21192;SDS011;10754;51.106;7.164;2022-12-16T12:39:31;21.73;;;19.37;;
21192;SDS011;10754;51.106;7.164;2022-12-16T12:42:32;21.47;;;19.17;;
21192;SDS011;10754;51.106;7.164;2022-12-16T12:48:54;22.67;;;20.07;;
21192;SDS011;10754;51.106;7.164;2022-12-16T12:51:53;23.87;;;20.40;;
21192;SDS011;10754;51.106;7.164;2022-12-16T12:54:43;26.57;;;21.20;;
21192;SDS011;10754;51.106;7.164;2022-12-16T12:57:35;25.80;;;21.90;;
21192;SDS011;10754;51.106;7.164;2022-12-16T13:00:23;36.07;;;24.27;;
21192;SDS011;10754;51.106;7.164;2022-12-16T13:05:56;28.47;;;23.00;;
21192;SDS011;10754;51.106;7.164;2022-12-16T13:11:35;27.43;;;23.43;;
21192;SDS011;10754;51.106;7.164;2022-12-16T13:17:16;26.93;;;22.40;;
21192;SDS011;10754;51.106;7.164;2022-12-16T13:20:02;32.00;;;24.13;;
21192;SDS011;10754;51.106;7.164;2022-12-16T13:23:21;27.00;;;23.60;;
21192;SDS011;10754;51.106;7.164;2022-12-16T13:26:13;27.50;;;23.50;;
21192;SDS011;10754;51.106;7.164;2022-12-16T13:29:06;29.33;;;24.73;;
21192;SDS011;10754;51.106;7.164;2022-12-16T13:34:59;27.60;;;23.77;;
21192;SDS011;10754;51.106;7.164;2022-12-16T13:37:53;31.00;;;24.40;;
21192;SDS011;10754;51.106;7.164;2022-12-16T13:46:45;27.43;;;23.30;;
21192;SDS011;10754;51.106;7.164;2022-12-16T13:52:41;31.03;;;24.50;;
21192;SDS011;10754;51.106;7.164;2022-12-16T13:55:32;30.27;;;24.13;;
21192;SDS011;10754;51.106;7.164;2022-12-16T14:04:50;31.13;;;24.73;;
21192;SDS011;10754;51.106;7.164;2022-12-16T14:07:38;31.17;;;24.80;;
21192;SDS011;10754;51.106;7.164;2022-12-16T14:13:20;33.90;;;25.40;;
21192;SDS011;10754;51.106;7.164;2022-12-16T14:16:39;31.83;;;26.00;;
21192;SDS011;10754;51.106;7.164;2022-12-16T14:19:35;33.60;;;25.60;;
21192;SDS011;10754;51.106;7.164;2022-12-16T14:25:19;29.80;;;24.00;;
21192;SDS011;10754;51.106;7.164;2022-12-16T14:28:13;32.13;;;25.47;;
21192;SDS011;10754;51.106;7.164;2022-12-16T14:31:05;29.97;;;24.43;;
21192;SDS011;10754;51.106;7.164;2022-12-16T14:34:26;33.13;;;25.87;;
21192;SDS011;10754;51.106;7.164;2022-12-16T14:37:15;34.50;;;25.30;;
21192;SDS011;10754;51.106;7.164;2022-12-16T14:40:17;31.83;;;24.47;;
21192;SDS011;10754;51.106;7.164;2022-12-16T14:43:09;29.63;;;24.20;;
21192;SDS011;10754;51.106;7.164;2022-12-16T14:46:26;33.77;;;25.63;;
21192;SDS011;10754;51.106;7.164;2022-12-16T14:49:24;33.67;;;25.93;;
21192;SDS011;10754;51.106;7.164;2022-12-16T14:58:17;32.20;;;25.77;;
21192;SDS011;10754;51.106;7.164;2022-12-16T15:01:16;32.07;;;24.63;;
21192;SDS011;10754;51.106;7.164;2022-12-16T15:04:04;34.50;;;24.37;;
21192;SDS011;10754;51.106;7.164;2022-12-16T15:06:56;27.80;;;23.87;;
21192;SDS011;10754;51.106;7.164;2022-12-16T15:09:45;31.50;;;24.63;;
21192;SDS011;10754;51.106;7.164;2022-12-16T15:12:33;30.43;;;24.17;;
21192;SDS011;10754;51.106;7.164;2022-12-16T15:18:25;32.97;;;24.90;;
21192;SDS011;10754;51.106;7.164;2022-12-16T15:21:18;29.33;;;24.73;;
21192;SDS011;10754;51.106;7.164;2022-12-16T15:24:06;30.77;;;24.40;;
21192;SDS011;10754;51.106;7.164;2022-12-16T15:27:11;34.03;;;26.73;;
21192;SDS011;10754;51.106;7.164;2022-12-16T15:30:29;29.40;;;23.67;;
21192;SDS011;10754;51.106;7.164;2022-12-16T15:33:17;33.03;;;24.87;;
21192;SDS011;10754;51.106;7.164;2022-12-16T15:36:03;36.70;;;25.23;;
21192;SDS011;10754;51.106;7.164;2022-12-16T15:39:29;29.27;;;23.97;;
21192;SDS011;10754;51.106;7.164;2022-12-16T15:42:24;40.77;;;28.07;;
21192;SDS011;10754;51.106;7.164;2022-12-16T15:48:28;45.67;;;31.33;;
21192;SDS011;10754;51.106;7.164;2022-12-16T15:51:22;48.50;;;31.43;;
21192;SDS011;10754;51.106;7.164;2022-12-16T15:54:21;48.50;;;31.77;;
21192;SDS011;10754;51.106;7.164;2022-12-16T16:00:17;47.90;;;31.37;;
21192;SDS011;10754;51.106;7.164;2022-12-16T16:03:16;45.73;;;30.07;;
21192;SDS011;10754;51.106;7.164;2022-12-16T16:06:04;48.83;;;31.13;;
21192;SDS011;10754;51.106;7.164;2022-12-16T16:09:11;42.77;;;29.33;;
21192;SDS011;10754;51.106;7.164;2022-12-16T16:11:55;50.43;;;29.73;;
21192;SDS011;10754;51.106;7.164;2022-12-16T16:14:39;43.23;;;29.73;;
21192;SDS011;10754;51.106;7.164;2022-12-16T16:17:23;44.77;;;29.20;;
21192;SDS011;10754;51.106;7.164;2022-12-16T16:20:11;47.87;;;29.17;;
21192;SDS011;10754;51.106;7.164;2022-12-16T16:22:57;39.90;;;28.33;;
21192;SDS011;10754;51.106;7.164;2022-12-16T16:25:41;42.33;;;28.63;;
21192;SDS011;10754;51.106;7.164;2022-12-16T16:28:26;43.87;;;29.33;;
21192;SDS011;10754;51.106;7.164;2022-12-16T16:31:09;39.40;;;27.90;;
21192;SDS011;10754;51.106;7.164;2022-12-16T16:33:53;43.23;;;28.33;;
21192;SDS011;10754;51.106;7.164;2022-12-16T16:36:37;47.80;;;29.67;;
21192;SDS011;10754;51.106;7.164;2022-12-16T16:39:22;39.87;;;28.50;;
21192;SDS011;10754;51.106;7.164;2022-12-16T16:42:07;42.97;;;29.33;;
21192;SDS011;10754;51.106;7.164;2022-12-16T16:44:51;44.17;;;30.80;;
21192;SDS011;10754;51.106;7.164;2022-12-16T16:47:36;41.57;;;29.03;;
21192;SDS011;10754;51.106;7.164;2022-12-16T16:50:23;39.50;;;28.23;;
21192;SDS011;10754;51.106;7.164;2022-12-16T16:53:10;36.20;;;25.37;;
21192;SDS011;10754;51.106;7.164;2022-12-16T16:55:58;43.43;;;27.37;;
21192;SDS011;10754;51.106;7.164;2022-12-16T16:58:43;48.27;;;28.73;;
21192;SDS011;10754;51.106;7.164;2022-12-16T17:01:27;38.03;;;26.07;;
21192;SDS011;10754;51.106;7.164;2022-12-16T17:04:12;42.77;;;27.17;;
21192;SDS011;10754;51.106;7.164;2022-12-16T17:06:56;36.43;;;25.03;;
21192;SDS011;10754;51.106;7.164;2022-12-16T17:09:40;41.13;;;24.13;;
21192;SDS011;10754;51.106;7.164;2022-12-16T17:12:25;44.73;;;25.43;;
21192;SDS011;10754;51.106;7.164;2022-12-16T17:18:28;43.43;;;24.30;;
21192;SDS011;10754;51.106;7.164;2022-12-16T17:21:12;49.50;;;25.93;;
21192;SDS011;10754;51.106;7.164;2022-12-16T17:24:03;47.17;;;26.27;;
21192;SDS011;10754;51.106;7.164;2022-12-16T17:26:48;49.50;;;26.77;;
21192;SDS011;10754;51.106;7.164;2022-12-16T17:29:32;42.90;;;26.93;;
21192;SDS011;10754;51.106;7.164;2022-12-16T17:32:21;38.30;;;26.07;;
21192;SDS011;10754;51.106;7.164;2022-12-16T17:35:05;46.03;;;28.47;;
21192;SDS011;10754;51.106;7.164;2022-12-16T17:37:51;40.77;;;24.37;;
21192;SDS011;10754;51.106;7.164;2022-12-16T17:40:35;40.00;;;25.37;;
21192;SDS011;10754;51.106;7.164;2022-12-16T17:43:19;43.10;;;26.03;;
21192;SDS011;10754;51.106;7.164;2022-12-16T17:46:04;39.97;;;26.10;;
21192;SDS011;10754;51.106;7.164;2022-12-16T17:48:50;36.83;;;26.10;;
21192;SDS011;10754;51.106;7.164;2022-12-16T17:51:36;52.70;;;28.03;;
21192;SDS011;10754;51.106;7.164;2022-12-16T17:54:20;42.77;;;28.10;;
21192;SDS011;10754;51.106;7.164;2022-12-16T17:57:04;44.63;;;29.60;;
21192;SDS011;10754;51.106;7.164;2022-12-16T17:59:49;41.50;;;27.70;;
21192;SDS011;10754;51.106;7.164;2022-12-16T18:02:33;46.30;;;28.70;;
21192;SDS011;10754;51.106;7.164;2022-12-16T18:05:17;46.27;;;29.43;;
21192;SDS011;10754;51.106;7.164;2022-12-16T18:08:01;49.37;;;29.30;;
21192;SDS011;10754;51.106;7.164;2022-12-16T18:10:45;42.77;;;27.43;;
21192;SDS011;10754;51.106;7.164;2022-12-16T18:13:34;42.73;;;28.10;;
21192;SDS011;10754;51.106;7.164;2022-12-16T18:16:20;47.83;;;28.17;;
21192;SDS011;10754;51.106;7.164;2022-12-16T18:19:09;45.30;;;29.53;;
21192;SDS011;10754;51.106;7.164;2022-12-16T18:21:54;45.33;;;29.40;;
21192;SDS011;10754;51.106;7.164;2022-12-16T18:24:41;42.30;;;27.63;;
21192;SDS011;10754;51.106;7.164;2022-12-16T18:27:25;49.87;;;28.43;;
21192;SDS011;10754;51.106;7.164;2022-12-16T18:30:15;40.93;;;26.53;;
21192;SDS011;10754;51.106;7.164;2022-12-16T18:33:02;43.60;;;27.23;;
21192;SDS011;10754;51.106;7.164;2022-12-16T18:35:46;58.13;;;31.53;;
21192;SDS011;10754;51.106;7.164;2022-12-16T18:38:31;43.87;;;28.63;;
21192;SDS011;10754;51.106;7.164;2022-12-16T18:41:16;48.83;;;27.00;;
21192;SDS011;10754;51.106;7.164;2022-12-16T18:44:02;42.43;;;26.90;;
21192;SDS011;10754;51.106;7.164;2022-12-16T18:46:50;42.17;;;26.50;;
21192;SDS011;10754;51.106;7.164;2022-12-16T18:49:34;57.43;;;27.17;;
21192;SDS011;10754;51.106;7.164;2022-12-16T18:52:18;58.17;;;28.30;;
21192;SDS011;10754;51.106;7.164;2022-12-16T18:55:03;61.20;;;30.83;;
21192;SDS011;10754;51.106;7.164;2022-12-16T18:57:49;52.03;;;27.07;;
21192;SDS011;10754;51.106;7.164;2022-12-16T19:00:33;39.27;;;27.00;;
21192;SDS011;10754;51.106;7.164;2022-12-16T19:03:17;50.83;;;30.27;;
21192;SDS011;10754;51.106;7.164;2022-12-16T19:06:02;47.23;;;29.17;;
21192;SDS011;10754;51.106;7.164;2022-12-16T19:08:46;54.20;;;28.70;;
21192;SDS011;10754;51.106;7.164;2022-12-16T19:11:33;43.97;;;26.20;;
21192;SDS011;10754;51.106;7.164;2022-12-16T19:14:17;42.27;;;27.20;;
21192;SDS011;10754;51.106;7.164;2022-12-16T19:17:02;41.80;;;29.53;;
21192;SDS011;10754;51.106;7.164;2022-12-16T19:19:46;42.60;;;27.50;;
21192;SDS011;10754;51.106;7.164;2022-12-16T19:22:33;48.20;;;28.43;;
21192;SDS011;10754;51.106;7.164;2022-12-16T19:25:30;33.33;;;24.30;;
21192;SDS011;10754;51.106;7.164;2022-12-16T19:28:36;38.50;;;25.77;;
21192;SDS011;10754;51.106;7.164;2022-12-16T19:31:19;49.93;;;28.73;;
21192;SDS011;10754;51.106;7.164;2022-12-16T19:34:06;55.77;;;27.67;;
21192;SDS011;10754;51.106;7.164;2022-12-16T19:36:50;49.93;;;29.17;;
21192;SDS011;10754;51.106;7.164;2022-12-16T19:39:34;46.13;;;27.43;;
21192;SDS011;10754;51.106;7.164;2022-12-16T19:42:21;54.27;;;27.17;;
21192;SDS011;10754;51.106;7.164;2022-12-16T19:45:08;48.63;;;28.00;;
21192;SDS011;10754;51.106;7.164;2022-12-16T19:47:59;51.13;;;27.53;;
21192;SDS011;10754;51.106;7.164;2022-12-16T19:50:59;49.47;;;26.33;;
21192;SDS011;10754;51.106;7.164;2022-12-16T19:53:47;41.73;;;26.53;;
21192;SDS011;10754;51.106;7.164;2022-12-16T19:56:32;41.20;;;25.33;;
21192;SDS011;10754;51.106;7.164;2022-12-16T19:59:16;41.60;;;25.57;;
21192;SDS011;10754;51.106;7.164;2022-12-16T20:02:04;45.73;;;27.07;;
21192;SDS011;10754;51.106;7.164;2022-12-16T20:04:52;41.30;;;25.07;;
21192;SDS011;10754;51.106;7.164;2022-12-16T20:07:39;35.87;;;25.23;;
21192;SDS011;10754;51.106;7.164;2022-12-16T20:10:23;35.83;;;24.30;;
21192;SDS011;10754;51.106;7.164;2022-12-16T20:13:08;41.40;;;25.93;;
21192;SDS011;10754;51.106;7.164;2022-12-16T20:15:58;37.97;;;26.00;;
21192;SDS011;10754;51.106;7.164;2022-12-16T20:18:47;40.93;;;25.73;;
21192;SDS011;10754;51.106;7.164;2022-12-16T20:21:31;49.10;;;27.23;;
21192;SDS011;10754;51.106;7.164;2022-12-16T20:24:15;38.30;;;26.97;;
21192;SDS011;10754;51.106;7.164;2022-12-16T20:26:59;38.80;;;26.23;;
21192;SDS011;10754;51.106;7.164;2022-12-16T20:29:43;39.73;;;26.20;;
21192;SDS011;10754;51.106;7.164;2022-12-16T20:32:27;40.77;;;24.90;;
21192;SDS011;10754;51.106;7.164;2022-12-16T20:35:11;37.10;;;24.73;;
21192;SDS011;10754;51.106;7.164;2022-12-16T20:37:55;35.73;;;24.77;;
21192;SDS011;10754;51.106;7.164;2022-12-16T20:40:39;39.07;;;25.00;;
21192;SDS011;10754;51.106;7.164;2022-12-16T20:43:26;33.80;;;23.57;;
21192;SDS011;10754;51.106;7.164;2022-12-16T20:46:11;35.00;;;24.30;;
21192;SDS011;10754;51.106;7.164;2022-12-16T20:48:55;33.40;;;23.53;;
21192;SDS011;10754;51.106;7.164;2022-12-16T20:51:39;32.97;;;22.30;;
21192;SDS011;10754;51.106;7.164;2022-12-16T20:54:22;26.67;;;20.60;;
21192;SDS011;10754;51.106;7.164;2022-12-16T20:57:07;33.23;;;22.40;;
21192;SDS011;10754;51.106;7.164;2022-12-16T20:59:51;33.23;;;22.97;;
21192;SDS011;10754;51.106;7.164;2022-12-16T21:02:35;31.93;;;23.67;;
21192;SDS011;10754;51.106;7.164;2022-12-16T21:05:19;51.53;;;31.60;;
21192;SDS011;10754;51.106;7.164;2022-12-16T21:08:03;40.20;;;27.47;;
21192;SDS011;10754;51.106;7.164;2022-12-16T21:10:47;40.87;;;27.93;;
21192;SDS011;10754;51.106;7.164;2022-12-16T21:13:31;42.90;;;27.63;;
21192;SDS011;10754;51.106;7.164;2022-12-16T21:16:18;38.53;;;25.70;;
21192;SDS011;10754;51.106;7.164;2022-12-16T21:19:17;37.23;;;25.93;;
21192;SDS011;10754;51.106;7.164;2022-12-16T21:32:19;44.23;;;27.20;;
21192;SDS011;10754;51.106;7.164;2022-12-16T21:35:27;44.20;;;27.80;;
21192;SDS011;10754;51.106;7.164;2022-12-16T21:44:50;42.30;;;27.07;;
21192;SDS011;10754;51.106;7.164;2022-12-16T21:51:34;40.20;;;25.47;;
21192;SDS011;10754;51.106;7.164;2022-12-16T21:57:46;39.87;;;24.70;;
21192;SDS011;10754;51.106;7.164;2022-12-16T22:03:59;37.90;;;23.57;;
21192;SDS011;10754;51.106;7.164;2022-12-16T22:20:55;39.33;;;22.47;;
21192;SDS011;10754;51.106;7.164;2022-12-16T22:24:31;44.43;;;22.27;;
21192;SDS011;10754;51.106;7.164;2022-12-16T22:27:41;32.67;;;19.47;;
21192;SDS011;10754;51.106;7.164;2022-12-16T22:31:17;44.70;;;19.20;;
21192;SDS011;10754;51.106;7.164;2022-12-16T22:54:06;28.33;;;16.83;;
21192;SDS011;10754;51.106;7.164;2022-12-16T23:03:47;27.07;;;16.77;;
21192;SDS011;10754;51.106;7.164;2022-12-16T23:31:25;29.00;;;18.10;;
21192;SDS011;10754;51.106;7.164;2022-12-16T23:38:15;29.60;;;18.97;;
21192;SDS011;10754;51.106;7.164;2022-12-16T23:48:38;27.53;;;17.60;;
21192;SDS011;10754;51.106;7.164;2022-12-16T23:51:47;28.53;;;17.50;;
21192;SDS011;10754;51.106;7.164;2022-12-16T23:58:35;36.17;;;21.83;;
